Time;durP1;ratioP1;P1;durP2;ratioP2;P2;SDS_P1;SDS_P2;PMS_P1;PMS_P2;Temp;Humidity;BMP_temperature;BMP_pressure;BME280_temperature;BME280_humidity;BME280_pressure;Samples;Min_cycle;Max_cycle;Signal;HPM_P1;HPM_P2
2022/01/20 00:01:16;;;;;;;;;;;;;;;-3.84;73.96;98533.81;5052973;28;20393;-56
2022/01/20 00:03:43;;;;;;;4.30;2.50;;;;;;;-3.82;73.51;98534.34;5064284;28;19932;-56
2022/01/20 00:27:54;;;;;;;7.63;3.03;;;;;;;-3.69;74.21;98505.03;5063932;28;20056;-59
2022/01/20 00:35:31;;;;;;;8.18;2.88;;;;;;;-3.62;74.33;98497.47;5066928;28;20415;-59
2022/01/20 00:37:58;;;;;;;5.40;2.88;;;;;;;-3.61;74.70;98505.34;5067547;28;20052;-63
2022/01/20 00:40:25;;;;;;;6.53;2.88;;;;;;;-3.58;74.17;98510.25;5062133;28;20150;-62
2022/01/20 00:42:52;;;;;;;3.67;2.00;;;;;;;-3.62;74.59;98494.75;5059471;28;20041;-61
2022/01/20 00:45:19;;;;;;;7.53;2.95;;;;;;;-3.62;74.43;98492.84;5064240;28;20752;-62
2022/01/20 00:47:46;;;;;;;6.40;2.80;;;;;;;-3.62;74.67;98506.41;5060513;28;20063;-62
2022/01/20 00:50:13;;;;;;;11.32;3.72;;;;;;;-3.66;74.85;98497.19;5059871;28;20055;-59
2022/01/20 00:52:40;;;;;;;6.55;2.78;;;;;;;-3.63;74.29;98490.38;5062133;28;20385;-60
2022/01/20 00:55:08;;;;;;;10.75;2.97;;;;;;;-3.64;74.70;98481.44;5067034;28;20094;-58
2022/01/20 00:57:35;;;;;;;5.22;2.60;;;;;;;-3.61;74.43;98471.94;5065725;28;20076;-60
2022/01/20 01:00:08;;;;;;;6.45;2.80;;;;;;;-3.60;74.91;98485.25;5067685;28;20427;-60
2022/01/20 01:02:38;;;;;;;7.18;2.97;;;;;;;-3.65;74.99;98468.91;5065985;28;20052;-59
2022/01/20 01:05:07;;;;;;;6.72;3.30;;;;;;;-3.63;75.13;98463.22;5058962;28;20064;-58
2022/01/20 01:07:51;;;;;;;6.82;2.75;;;;;;;-3.59;74.85;98458.91;5063295;28;20423;-59
2022/01/20 01:10:29;;;;;;;5.25;2.80;;;;;;;-3.58;74.01;98455.91;5054407;28;20083;-59
2022/01/20 01:13:02;;;;;;;6.63;2.90;;;;;;;-3.59;74.62;98464.34;5066847;28;20454;-60
2022/01/20 01:15:38;;;;;;;12.27;3.42;;;;;;;-3.57;75.12;98457.53;5060877;28;20078;-61
2022/01/20 01:23:22;;;;;;;5.88;3.00;;;;;;;-3.50;74.74;98447.22;5066811;28;20480;-55
2022/01/20 01:25:49;;;;;;;9.00;3.40;;;;;;;-3.52;74.53;98443.97;5061521;28;20479;-59
2022/01/20 01:28:18;;;;;;;9.27;3.17;;;;;;;-3.49;74.74;98448.03;5059312;28;20151;-55
2022/01/20 01:33:21;;;;;;;6.85;2.72;;;;;;;-3.55;74.37;98439.06;5061023;28;20053;-57
2022/01/20 01:35:55;;;;;;;5.07;2.55;;;;;;;-3.54;74.58;98443.41;5063845;28;20056;-59
2022/01/20 01:38:35;;;;;;;3.88;1.30;;;;;;;-3.53;74.34;98447.75;5065555;28;20066;-57
2022/01/20 01:41:12;;;;;;;8.77;2.78;;;;;;;-3.54;74.79;98445.28;5063842;28;20059;-56
2022/01/20 01:43:45;;;;;;;6.10;2.90;;;;;;;-3.51;74.82;98451.03;5057298;28;20135;-58
2022/01/20 01:46:14;;;;;;;5.82;2.95;;;;;;;-3.50;74.64;98443.69;5060765;28;20045;-61
2022/01/20 01:48:43;;;;;;;10.07;3.08;;;;;;;-3.50;75.28;98455.38;5057335;28;20044;-58
2022/01/20 01:51:11;;;;;;;7.72;3.65;;;;;;;-3.51;74.80;98439.31;5061196;28;20131;-59
2022/01/20 01:53:39;;;;;;;8.05;2.83;;;;;;;-3.51;74.61;98433.88;5066201;28;20055;-59
2022/01/20 01:56:07;;;;;;;7.50;2.72;;;;;;;-3.53;75.27;98430.66;5063806;28;20543;-59
2022/01/20 01:58:34;;;;;;;5.55;2.65;;;;;;;-3.53;74.72;98436.09;5058509;28;20470;-59
2022/01/20 02:01:02;;;;;;;10.90;2.45;;;;;;;-3.51;74.86;98433.88;5062808;28;20140;-58
2022/01/20 02:03:31;;;;;;;5.72;2.88;;;;;;;-3.51;74.58;98429.28;5065693;28;20468;-57
2022/01/20 02:06:52;;;;;;;10.88;3.00;;;;;;;-3.50;75.13;98425.47;5063228;28;20135;-59
2022/01/20 02:19:44;;;;;;;6.22;3.13;;;;;;;-3.46;74.68;98421.16;5059827;28;20076;-59
2022/01/20 02:22:12;;;;;;;5.03;2.42;;;;;;;-3.44;75.41;98421.66;5066291;28;20158;-60
2022/01/20 02:24:39;;;;;;;7.60;3.10;;;;;;;-3.48;75.01;98412.44;5056003;28;20151;-59
2022/01/20 02:27:06;;;;;;;10.57;3.60;;;;;;;-3.46;75.23;98388.53;5065462;28;20045;-62
2022/01/20 02:29:33;;;;;;;7.50;3.72;;;;;;;-3.41;74.93;98395.88;5063157;28;20067;-62
2022/01/20 02:32:00;;;;;;;7.68;2.33;;;;;;;-3.40;74.92;98382.00;5058026;28;20131;-61
2022/01/20 02:34:29;;;;;;;7.60;2.85;;;;;;;-3.41;75.11;98380.34;5061803;28;20047;-62
2022/01/20 02:37:01;;;;;;;9.82;3.55;;;;;;;-3.38;74.84;98374.38;5065803;28;20458;-62
2022/01/20 02:44:54;;;;;;;6.03;3.30;;;;;;;-3.36;75.02;98380.38;5057206;28;20534;-62
2022/01/20 02:47:26;;;;;;;8.38;3.28;;;;;;;-3.41;75.36;98372.19;5058251;28;20139;-57
2022/01/20 02:49:53;;;;;;;8.40;3.35;;;;;;;-3.36;75.41;98376.81;5058090;28;20522;-57
2022/01/20 02:52:23;;;;;;;7.15;3.45;;;;;;;-3.38;75.38;98368.16;5065026;28;20103;-58
2022/01/20 02:54:54;;;;;;;7.75;3.22;;;;;;;-3.32;74.67;98362.41;5064279;28;20082;-58
2022/01/20 02:57:23;;;;;;;8.30;3.17;;;;;;;-3.32;75.37;98356.19;5069121;28;20055;-54
2022/01/20 02:59:50;;;;;;;8.07;4.13;;;;;;;-3.30;75.25;98382.00;5053109;28;20045;-59
2022/01/20 03:02:17;;;;;;;7.45;3.45;;;;;;;-3.40;75.48;98348.56;5057416;28;20045;-61
2022/01/20 03:04:45;;;;;;;5.88;2.95;;;;;;;-3.42;75.51;98354.28;5059750;28;20541;-59
2022/01/20 03:07:12;;;;;;;6.47;3.08;;;;;;;-3.51;75.65;98358.63;5064957;28;20059;-59
2022/01/20 03:09:39;;;;;;;7.57;2.92;;;;;;;-3.47;75.59;98348.81;5062609;28;20056;-56
2022/01/20 03:12:07;;;;;;;6.50;2.88;;;;;;;-3.43;75.65;98357.25;5065811;28;20416;-58
2022/01/20 03:14:34;;;;;;;9.18;3.47;;;;;;;-3.39;75.29;98364.59;5062129;28;20049;-60
2022/01/20 03:17:02;;;;;;;10.88;3.50;;;;;;;-3.38;75.45;98373.56;5057353;28;20140;-59
2022/01/20 03:19:29;;;;;;;9.35;3.70;;;;;;;-3.38;75.63;98347.19;5062081;28;20427;-58
2022/01/20 03:21:56;;;;;;;7.40;3.83;;;;;;;-3.39;75.46;98353.72;5065040;28;20044;-61
2022/01/20 03:24:22;;;;;;;8.40;4.00;;;;;;;-3.41;75.79;98347.75;5060008;28;20084;-62
2022/01/20 03:26:49;;;;;;;8.68;3.17;;;;;;;-3.37;75.35;98343.41;5057652;28;20051;-62
2022/01/20 03:29:16;;;;;;;7.78;3.92;;;;;;;-3.36;75.64;98350.47;5063829;28;20136;-62
2022/01/20 03:31:44;;;;;;;9.35;3.42;;;;;;;-3.36;75.45;98353.19;5064949;28;20136;-62
2022/01/20 03:34:11;;;;;;;9.93;3.50;;;;;;;-3.33;75.86;98338.22;5057851;28;20044;-61
2022/01/20 03:36:38;;;;;;;8.82;3.30;;;;;;;-3.33;75.35;98349.09;5056565;28;20515;-61
2022/01/20 03:39:05;;;;;;;7.03;3.35;;;;;;;-3.32;75.97;98339.88;5065062;28;20473;-62
2022/01/20 03:41:32;;;;;;;11.63;3.95;;;;;;;-3.30;75.73;98332.22;5063855;28;20040;-58
2022/01/20 03:43:59;;;;;;;10.30;3.95;;;;;;;-3.29;75.36;98329.25;5056974;28;20083;-59
2022/01/20 03:46:26;;;;;;;12.88;4.50;;;;;;;-3.29;76.14;98318.38;5070054;28;20399;-59
2022/01/20 03:49:02;;;;;;;8.55;4.15;;;;;;;-3.29;75.95;98318.38;5056844;28;20049;-56
2022/01/20 03:51:29;;;;;;;10.93;3.72;;;;;;;-3.32;75.61;98318.91;5060594;28;20053;-58
2022/01/20 03:53:56;;;;;;;12.30;3.45;;;;;;;-3.32;76.20;98324.34;5064638;28;20044;-59
2022/01/20 03:56:23;;;;;;;8.55;3.60;;;;;;;-3.28;75.98;98325.47;5061792;28;20090;-58
2022/01/20 03:58:51;;;;;;;10.90;3.72;;;;;;;-3.30;75.80;98316.75;5056956;28;20571;-60
2022/01/20 04:01:19;;;;;;;12.23;4.03;;;;;;;-3.25;75.66;98321.38;5060084;28;20614;-59
2022/01/20 04:03:47;;;;;;;7.28;3.65;;;;;;;-3.23;75.62;98328.16;5065840;28;20048;-59
2022/01/20 04:06:14;;;;;;;16.38;3.92;;;;;;;-3.28;76.14;98330.91;5064054;28;20415;-60
2022/01/20 04:08:47;;;;;;;8.55;3.85;;;;;;;-3.34;76.01;98321.13;5059087;28;20797;-60
2022/01/20 04:11:22;;;;;;;11.93;3.90;;;;;;;-3.32;76.05;98324.34;5072891;28;20044;-60
2022/01/20 04:13:50;;;;;;;10.43;3.95;;;;;;;-3.30;76.09;98316.75;5060539;28;20132;-60
2022/01/20 04:16:51;;;;;;;8.98;3.78;;;;;;;-3.28;75.81;98316.47;5065401;28;20151;-59
2022/01/20 04:19:19;;;;;;;11.77;3.50;;;;;;;-3.31;75.79;98304.25;5067642;28;20511;-59
2022/01/20 04:21:46;;;;;;;9.75;3.25;;;;;;;-3.28;76.19;98314.59;5067456;28;20059;-58
2022/01/20 04:24:15;;;;;;;11.02;3.65;;;;;;;-3.38;76.12;98298.25;5061076;28;20080;-60
2022/01/20 04:26:44;;;;;;;8.60;3.72;;;;;;;-3.37;76.25;98294.47;5061721;28;20059;-60
2022/01/20 04:29:13;;;;;;;7.40;3.38;;;;;;;-3.31;75.95;98300.72;5060101;28;20407;-58
2022/01/20 04:31:42;;;;;;;14.82;4.15;;;;;;;-3.33;76.24;98290.13;5062540;28;20502;-58
2022/01/20 04:34:09;;;;;;;8.23;3.75;;;;;;;-3.24;76.12;98288.47;5056491;28;20458;-60
2022/01/20 04:36:40;;;;;;;14.02;3.83;;;;;;;-3.21;76.26;98282.47;5066585;28;20143;-61
2022/01/20 04:39:15;;;;;;;6.90;3.30;;;;;;;-3.15;75.67;98281.38;5060444;28;20521;-61
2022/01/20 04:41:43;;;;;;;9.05;3.78;;;;;;;-3.18;75.94;98281.94;5061676;28;20419;-59
2022/01/20 04:44:33;;;;;;;7.82;3.92;;;;;;;-3.17;76.03;98278.09;5067640;28;20416;-60
2022/01/20 04:47:14;;;;;;;8.90;4.10;;;;;;;-3.18;76.38;98281.09;5056381;28;20049;-60
2022/01/20 04:57:59;;;;;;;10.70;3.30;;;;;;;-3.14;76.20;98287.63;5062674;28;20056;-55
2022/01/20 05:00:28;;;;;;;7.38;3.35;;;;;;;-3.15;76.52;98288.72;5059589;28;20128;-57
2022/01/20 05:02:55;;;;;;;7.43;3.38;;;;;;;-3.17;75.80;98267.22;5064382;28;20099;-59
2022/01/20 05:05:26;;;;;;;6.47;2.92;;;;;;;-3.17;76.42;98283.53;5067028;28;20063;-55
2022/01/20 05:07:53;;;;;;;9.23;3.33;;;;;;;-3.20;76.63;98273.22;5061138;28;20431;-62
2022/01/20 05:10:20;;;;;;;8.48;3.42;;;;;;;-3.21;76.34;98266.16;5062687;28;20055;-62
2022/01/20 05:15:21;;;;;;;10.30;3.63;;;;;;;-3.19;76.24;98266.72;5059630;28;20135;-62
2022/01/20 05:17:48;;;;;;;9.32;4.10;;;;;;;-3.14;76.02;98271.31;5074827;28;20076;-65
2022/01/20 05:20:15;;;;;;;11.75;3.33;;;;;;;-3.17;76.35;98266.44;5076264;28;20384;-62
2022/01/20 05:22:44;;;;;;;10.55;3.35;;;;;;;-3.16;76.68;98268.88;5058226;28;20056;-61
2022/01/20 05:25:13;;;;;;;8.10;3.92;;;;;;;-3.13;76.44;98262.06;5075628;28;20491;-62
2022/01/20 05:27:40;;;;;;;16.38;3.80;;;;;;;-3.09;76.68;98268.56;5076846;28;20122;-62
2022/01/20 05:30:08;;;;;;;9.18;3.47;;;;;;;-3.07;76.11;98252.81;5075113;28;20055;-62
2022/01/20 05:32:35;;;;;;;7.78;3.67;;;;;;;-3.09;76.31;98253.06;5076363;28;20128;-62
2022/01/20 05:35:02;;;;;;;10.05;3.85;;;;;;;-3.11;76.03;98243.59;5088706;28;20049;-62
2022/01/20 05:37:29;;;;;;;6.47;3.25;;;;;;;-3.10;76.11;98250.63;5076601;28;20131;-62
2022/01/20 05:39:56;;;;;;;10.98;3.80;;;;;;;-3.15;76.40;98240.59;5074855;28;20463;-62
2022/01/20 05:42:23;;;;;;;11.05;4.03;;;;;;;-3.12;76.79;98248.19;5076235;28;20074;-62
2022/01/20 05:44:51;;;;;;;12.10;4.35;;;;;;;-3.11;76.05;98241.66;5074688;28;20140;-61
2022/01/20 05:47:26;;;;;;;9.85;3.65;;;;;;;-3.09;76.36;98242.19;5075530;28;20403;-62
2022/01/20 05:49:54;;;;;;;11.40;3.60;;;;;;;-3.14;76.66;98234.06;5074935;28;20075;-62
2022/01/20 05:52:21;;;;;;;7.78;3.60;;;;;;;-3.04;76.51;98254.97;5058147;28;20066;-62
2022/01/20 05:54:48;;;;;;;11.23;4.25;;;;;;;-3.01;76.39;98240.81;5081756;28;20575;-62
2022/01/20 05:57:15;;;;;;;8.90;4.20;;;;;;;-3.01;76.18;98251.69;5078725;28;20153;-62
2022/01/20 05:59:42;;;;;;;10.52;4.30;;;;;;;-2.98;76.10;98254.69;5080785;28;20044;-62
2022/01/20 06:02:26;;;;;;;11.93;4.40;;;;;;;-3.02;76.14;98245.44;5075751;28;20548;-62
2022/01/20 06:04:53;;;;;;;10.93;3.17;;;;;;;-3.03;76.40;98235.66;5083304;28;20060;-62
2022/01/20 06:07:21;;;;;;;12.57;4.43;;;;;;;-3.02;76.25;98231.84;5057253;28;20067;-62
2022/01/20 06:09:48;;;;;;;8.52;3.60;;;;;;;-2.94;76.34;98234.00;5086266;28;20040;-62
2022/01/20 06:12:15;;;;;;;11.23;4.50;;;;;;;-2.90;76.24;98228.81;5069842;28;20062;-62
2022/01/20 06:14:42;;;;;;;7.30;3.60;;;;;;;-2.87;76.05;98229.06;5079127;28;20475;-63
2022/01/20 06:17:09;;;;;;;5.55;3.15;;;;;;;-2.91;76.24;98222.56;5075072;28;20414;-62
2022/01/20 06:19:36;;;;;;;11.65;4.70;;;;;;;-2.95;76.21;98224.22;5082274;28;20051;-62
2022/01/20 06:22:03;;;;;;;10.25;4.03;;;;;;;-2.92;76.10;98218.22;5074365;28;20056;-63
2022/01/20 06:24:30;;;;;;;8.75;4.35;;;;;;;-2.88;76.15;98202.13;5074139;28;20143;-62
2022/01/20 06:26:58;;;;;;;10.32;3.97;;;;;;;-2.87;76.12;98218.16;5073593;28;20053;-63
2022/01/20 06:29:25;;;;;;;13.95;4.18;;;;;;;-2.83;75.82;98215.72;5084508;28;20083;-62
2022/01/20 06:31:52;;;;;;;11.48;4.35;;;;;;;-2.84;76.32;98212.16;5074077;28;20405;-62
2022/01/20 06:34:19;;;;;;;10.15;4.35;;;;;;;-2.81;75.92;98211.63;5074990;28;20044;-63
2022/01/20 06:36:46;;;;;;;10.15;3.92;;;;;;;-2.81;76.05;98213.53;5088416;28;20079;-63
2022/01/20 06:39:13;;;;;;;11.07;4.03;;;;;;;-2.81;75.81;98221.72;5081633;28;20052;-62
2022/01/20 06:41:44;;;;;;;11.02;3.53;;;;;;;-2.87;75.58;98207.28;5074122;28;20170;-64
2022/01/20 06:44:12;;;;;;;10.13;4.63;;;;;;;-2.83;75.73;98199.41;5080387;28;20490;-63
2022/01/20 06:46:39;;;;;;;9.50;4.18;;;;;;;-2.84;75.95;98206.72;5091502;28;20473;-63
2022/01/20 06:49:06;;;;;;;8.85;4.30;;;;;;;-2.82;76.00;98210.00;5085403;28;20183;-63
2022/01/20 06:51:33;;;;;;;9.95;4.20;;;;;;;-2.79;76.25;98211.34;5082536;28;20131;-62
2022/01/20 06:54:00;;;;;;;11.32;4.45;;;;;;;-2.78;76.00;98223.88;5078074;28;20127;-62
2022/01/20 06:56:28;;;;;;;13.15;4.70;;;;;;;-2.80;75.93;98207.00;5076838;28;20422;-63
2022/01/20 06:59:11;;;;;;;14.27;4.35;;;;;;;-2.78;75.92;98208.34;5081780;28;20106;-62
2022/01/20 07:01:40;;;;;;;11.48;5.15;;;;;;;-2.74;75.81;98214.88;5080304;28;20115;-63
2022/01/20 07:04:09;;;;;;;12.20;4.03;;;;;;;-2.78;75.89;98223.88;5083662;28;20098;-63
2022/01/20 07:06:37;;;;;;;11.95;4.43;;;;;;;-2.77;75.53;98228.19;5074848;28;20152;-62
2022/01/20 07:09:04;;;;;;;14.18;4.15;;;;;;;-2.77;76.06;98220.88;5086317;28;20122;-63
2022/01/20 07:11:31;;;;;;;12.73;4.90;;;;;;;-2.82;75.96;98231.75;5078909;28;20056;-62
2022/01/20 07:13:59;;;;;;;14.98;4.75;;;;;;;-2.78;75.98;98226.59;5079529;28;20507;-63
2022/01/20 07:16:25;;;;;;;11.27;5.22;;;;;;;-2.77;76.36;98220.03;5055304;28;20052;-63
2022/01/20 07:18:52;;;;;;;20.92;4.60;;;;;;;-2.73;75.93;98221.94;5088731;28;20503;-62
2022/01/20 07:21:19;;;;;;;13.45;5.30;;;;;;;-2.72;75.75;98215.38;5082190;28;20135;-63
2022/01/20 07:23:46;;;;;;;12.40;4.32;;;;;;;-2.65;75.47;98210.47;5078893;28;20040;-63
2022/01/20 07:26:14;;;;;;;16.23;5.20;;;;;;;-2.62;76.04;98207.19;5088430;28;20055;-63
2022/01/20 07:28:41;;;;;;;14.88;4.93;;;;;;;-2.58;75.66;98194.63;5085287;28;20075;-64
2022/01/20 07:31:08;;;;;;;12.30;4.70;;;;;;;-2.56;75.55;98192.44;5057666;28;20102;-62
2022/01/20 07:33:36;;;;;;;15.65;4.85;;;;;;;-2.59;75.66;98197.63;5095014;28;20054;-63
2022/01/20 07:36:04;;;;;;;9.77;4.13;;;;;;;-2.63;75.31;98191.13;5082263;28;20444;-63
2022/01/20 07:38:31;;;;;;;20.90;4.70;;;;;;;-2.64;75.43;98190.31;5077838;28;20060;-63
2022/01/20 07:40:58;;;;;;;9.18;4.43;;;;;;;-2.67;76.12;98196.31;5080988;28;20052;-63
2022/01/20 07:43:25;;;;;;;12.93;5.18;;;;;;;-2.70;76.09;98202.31;5076808;28;20131;-63
2022/01/20 07:45:52;;;;;;;14.48;5.68;;;;;;;-2.68;75.97;98194.69;5093313;28;20044;-62
2022/01/20 07:48:19;;;;;;;13.65;5.97;;;;;;;-2.66;75.82;98195.22;5076712;28;20060;-62
2022/01/20 07:50:46;;;;;;;16.20;5.47;;;;;;;-2.60;75.71;98196.81;5085265;28;20130;-63
2022/01/20 07:53:13;;;;;;;13.48;5.20;;;;;;;-2.67;75.70;98212.63;5081758;28;20047;-63
2022/01/20 07:55:40;;;;;;;12.43;5.00;;;;;;;-2.81;76.06;98211.63;5083218;28;20048;-63
2022/01/20 07:58:07;;;;;;;16.83;5.68;;;;;;;-2.78;75.76;98183.84;5077708;28;20044;-64
2022/01/20 08:00:34;;;;;;;11.98;5.65;;;;;;;-2.76;75.85;98197.16;5076743;28;20082;-64
2022/01/20 08:03:01;;;;;;;22.02;6.15;;;;;;;-2.75;75.92;98194.16;5078327;28;20063;-64
2022/01/20 08:05:29;;;;;;;37.45;11.27;;;;;;;-2.69;75.57;98198.50;5058449;28;20053;-66
2022/01/20 08:07:55;;;;;;;12.82;5.32;;;;;;;-2.76;76.26;98194.44;5078107;28;20052;-63
2022/01/20 08:10:23;;;;;;;18.10;5.60;;;;;;;-2.80;75.95;98185.22;5082235;28;20060;-63
2022/01/20 08:12:50;;;;;;;16.25;4.97;;;;;;;-2.81;76.33;98198.00;5085396;28;20071;-63
2022/01/20 08:15:17;;;;;;;14.55;5.30;;;;;;;-2.85;75.91;98198.84;5076361;28;20098;-63
2022/01/20 08:17:44;;;;;;;16.83;6.25;;;;;;;-2.81;75.90;98192.56;5087772;28;20146;-62
2022/01/20 08:20:14;;;;;;;29.02;10.02;;;;;;;-2.72;75.61;98192.81;5076231;28;20044;-63
2022/01/20 08:22:41;;;;;;;17.00;5.78;;;;;;;-2.72;76.16;98190.88;5078168;28;20044;-62
2022/01/20 08:25:11;;;;;;;17.90;4.57;;;;;;;-2.66;75.80;98186.25;5075852;28;20057;-62
2022/01/20 08:27:39;;;;;;;15.25;4.63;;;;;;;-2.66;76.12;98187.03;5078180;28;20044;-63
2022/01/20 08:30:09;;;;;;;18.90;5.50;;;;;;;-2.63;75.67;98183.75;5088712;28;20055;-63
2022/01/20 08:32:37;;;;;;;13.30;5.60;;;;;;;-2.61;75.91;98183.47;5090282;28;20047;-62
2022/01/20 08:35:06;;;;;;;15.77;5.60;;;;;;;-2.60;75.76;98179.69;5078068;28;20040;-62
2022/01/20 08:37:33;;;;;;;9.15;5.03;;;;;;;-2.67;76.04;98185.44;5085119;28;20044;-62
2022/01/20 08:40:04;;;;;;;14.90;5.18;;;;;;;-2.77;76.36;98174.63;5085300;28;20496;-63
2022/01/20 08:42:32;;;;;;;10.32;4.82;;;;;;;-2.88;76.68;98175.75;5081595;28;20135;-62
2022/01/20 08:44:59;;;;;;;10.63;5.20;;;;;;;-2.85;76.20;98167.03;5076053;28;20036;-62
2022/01/20 08:47:26;;;;;;;15.77;4.78;;;;;;;-2.84;76.28;98160.47;5078246;28;20130;-63
2022/01/20 08:49:54;;;;;;;12.38;5.25;;;;;;;-2.79;76.13;98155.03;5083369;28;20093;-63
2022/01/20 08:52:21;;;;;;;11.13;4.57;;;;;;;-2.79;76.25;98127.81;5057782;28;20079;-65
2022/01/20 08:54:50;;;;;;;21.80;6.25;;;;;;;-2.74;76.19;98146.00;5078644;28;20040;-63
2022/01/20 08:57:17;;;;;;;11.80;4.50;;;;;;;-2.75;75.86;98139.75;5083490;28;20523;-64
2022/01/20 08:59:44;;;;;;;13.25;4.90;;;;;;;-2.79;76.38;98125.09;5085958;28;20099;-63
2022/01/20 09:02:12;;;;;;;10.70;4.35;;;;;;;-2.79;76.05;98127.81;5078726;28;20628;-63
2022/01/20 09:04:39;;;;;;;19.20;5.10;;;;;;;-2.72;76.28;98120.13;5086916;28;20114;-63
2022/01/20 09:07:06;;;;;;;8.45;4.20;;;;;;;-2.69;75.83;98133.19;5075758;28;20499;-63
2022/01/20 09:09:40;;;;;;;14.02;5.00;;;;;;;-2.81;76.03;98121.84;5085799;28;20067;-63
2022/01/20 09:17:25;;;;;;;14.38;5.10;;;;;;;-2.84;76.21;98108.78;5075065;28;20131;-64
2022/01/20 09:19:52;;;;;;;13.35;4.93;;;;;;;-2.85;76.55;98099.00;5077682;28;20079;-62
2022/01/20 09:22:20;;;;;;;10.07;3.97;;;;;;;-2.77;76.31;98109.31;5074935;28;20048;-62
2022/01/20 09:24:47;;;;;;;14.50;5.70;;;;;;;-2.73;76.22;98093.22;5087866;28;20414;-63
2022/01/20 09:27:15;;;;;;;12.50;5.57;;;;;;;-2.68;75.91;98102.16;5080086;28;20055;-62
2022/01/20 09:29:41;;;;;;;10.50;4.25;;;;;;;-2.74;75.89;98092.41;5085254;28;20052;-64
2022/01/20 09:32:12;;;;;;;8.32;3.70;;;;;;;-2.85;76.21;98085.41;5082355;28;20130;-63
2022/01/20 09:34:42;;;;;;;11.77;5.28;;;;;;;-2.86;76.55;98094.69;5090025;28;20054;-64
2022/01/20 09:37:09;;;;;;;12.65;4.45;;;;;;;-2.88;76.20;98085.16;5084431;28;20571;-64
2022/01/20 09:39:38;;;;;;;15.10;6.22;;;;;;;-2.81;76.07;98091.91;5084483;28;20127;-64
2022/01/20 09:42:09;;;;;;;12.15;4.68;;;;;;;-2.74;76.29;98091.59;5082540;28;20059;-63
2022/01/20 09:44:35;;;;;;;;;;;;;;;-2.79;76.49;98084.28;5089301;28;20044;-63
2022/01/20 09:47:03;;;;;;;11.45;4.70;;;;;;;-2.82;76.48;98068.53;5088589;28;20363;-63
2022/01/20 09:49:30;;;;;;;13.63;5.28;;;;;;;-2.78;76.17;98069.56;5090097;28;20415;-64
2022/01/20 09:51:58;;;;;;;12.70;5.15;;;;;;;-2.75;76.30;98060.84;5085759;28;20045;-64
2022/01/20 09:54:25;;;;;;;9.23;4.25;;;;;;;-2.74;76.17;98059.75;5061598;28;20105;-64
2022/01/20 09:56:52;;;;;;;13.85;5.85;;;;;;;-2.64;76.50;98061.56;5075276;28;20059;-64
2022/01/20 09:59:19;;;;;;;12.93;5.57;;;;;;;-2.57;76.22;98060.19;5078852;28;20048;-64
2022/01/20 10:01:49;;;;;;;11.90;5.35;;;;;;;-2.56;75.91;98061.81;5057445;28;20160;-63
2022/01/20 10:04:26;;;;;;;11.90;5.45;;;;;;;-2.55;75.70;98066.13;5077414;28;20143;-63
2022/01/20 10:07:03;;;;;;;33.03;10.23;;;;;;;-2.53;75.93;98072.13;5061815;28;20049;-64
2022/01/20 10:09:41;;;;;;;21.42;5.95;;;;;;;-2.63;76.02;98074.91;5074877;28;20550;-63
2022/01/20 10:12:10;;;;;;;12.80;4.88;;;;;;;-2.85;76.64;98085.41;5074046;28;20048;-63
2022/01/20 10:14:52;;;;;;;13.38;5.25;;;;;;;-2.89;76.43;98087.06;5075473;28;20040;-63
2022/01/20 10:17:29;;;;;;;12.35;6.18;;;;;;;-2.84;76.88;98057.09;5079765;28;20406;-63
2022/01/20 10:20:02;;;;;;;8.90;4.05;;;;;;;-2.76;76.32;98056.50;5075962;28;20051;-63
2022/01/20 10:22:30;;;;;;;15.23;5.65;;;;;;;-2.74;76.82;98058.94;5074150;28;20045;-64
2022/01/20 10:25:06;;;;;;;11.65;4.72;;;;;;;-2.77;76.53;98063.06;5081388;28;20043;-63
2022/01/20 10:27:48;;;;;;;10.45;4.75;;;;;;;-2.75;76.53;98047.25;5083617;28;20056;-63
2022/01/20 10:30:17;;;;;;;15.23;5.75;;;;;;;-2.79;75.98;98043.47;5076929;28;20044;-64
2022/01/20 10:32:45;;;;;;;13.88;5.38;;;;;;;-2.75;76.08;98062.78;5073957;28;20076;-63
2022/01/20 10:35:16;;;;;;;7.88;4.28;;;;;;;-2.74;75.89;98043.44;5078289;28;20099;-64
2022/01/20 10:38:00;;;;;;;10.80;4.90;;;;;;;-2.68;76.03;98041.47;5075550;28;20057;-62
2022/01/20 10:40:28;;;;;;;11.80;5.22;;;;;;;-2.61;76.30;98042.78;5073555;28;20503;-63
2022/01/20 10:42:55;;;;;;;11.95;4.93;;;;;;;-2.54;75.81;98043.28;5078555;28;20076;-62
2022/01/20 10:45:29;;;;;;;13.63;5.32;;;;;;;-2.53;75.76;98049.53;5077200;28;20472;-63
2022/01/20 10:47:58;;;;;;;8.80;5.10;;;;;;;-2.55;75.88;98041.63;5078472;28;20048;-62
2022/01/20 10:50:30;;;;;;;13.55;4.88;;;;;;;-2.61;75.73;98053.66;5068109;28;20079;-63
2022/01/20 10:52:57;;;;;;;11.20;4.63;;;;;;;-2.61;76.25;98041.97;5079686;28;20044;-63
2022/01/20 10:55:31;;;;;;;14.38;4.93;;;;;;;-2.61;76.29;98042.78;5057272;28;20449;-63
2022/01/20 10:58:21;;;;;;;7.70;3.17;;;;;;;-2.61;76.22;98064.56;5084752;28;20052;-63
2022/01/20 11:00:57;;;;;;;9.40;4.72;;;;;;;-2.69;76.34;98045.31;5082181;28;20131;-63
2022/01/20 11:03:28;;;;;;;12.80;3.63;;;;;;;-2.70;76.63;98049.94;5083139;28;20473;-63
2022/01/20 11:05:57;;;;;;;10.50;4.05;;;;;;;-2.73;76.10;98042.34;5081648;28;20048;-63
2022/01/20 11:08:23;;;;;;;10.60;4.30;;;;;;;-2.79;76.40;98042.66;5087843;28;20055;-63
2022/01/20 11:10:52;;;;;;;11.18;5.03;;;;;;;-2.75;76.47;98052.69;5092849;28;20098;-63
2022/01/20 11:13:22;;;;;;;12.25;4.88;;;;;;;-2.81;76.06;98036.69;5077190;28;20053;-63
2022/01/20 11:15:49;;;;;;;13.25;5.13;;;;;;;-2.83;76.63;98039.69;5072819;28;20044;-63
2022/01/20 11:18:17;;;;;;;10.40;3.92;;;;;;;-2.81;76.72;98023.09;5073778;28;20079;-64
2022/01/20 11:20:47;;;;;;;15.13;4.40;;;;;;;-2.78;76.21;98026.03;5073308;28;20436;-63
2022/01/20 11:23:15;;;;;;;9.50;4.07;;;;;;;-2.73;76.17;98031.44;5077341;28;20476;-63
2022/01/20 11:25:43;;;;;;;9.95;4.65;;;;;;;-2.69;76.25;98027.06;5076019;28;20800;-63
2022/01/20 11:28:16;;;;;;;10.25;4.55;;;;;;;-2.66;75.85;98022.97;5084333;28;20052;-63
2022/01/20 11:30:58;;;;;;;11.55;5.00;;;;;;;-2.57;76.39;98037.59;5072762;28;20059;-62
2022/01/20 11:33:39;;;;;;;20.60;6.22;;;;;;;-2.55;75.99;98025.31;5074170;28;20036;-63
2022/01/20 11:36:21;;;;;;;11.13;4.80;;;;;;;-2.53;76.29;98023.13;5073044;28;20045;-63
2022/01/20 11:39:09;;;;;;;12.30;5.15;;;;;;;-2.57;76.35;98027.53;5073253;28;20055;-63
2022/01/20 11:41:46;;;;;;;5.57;2.67;;;;;;;-2.56;76.41;98018.25;5074697;28;20055;-63
2022/01/20 11:44:18;;;;;;;13.60;4.57;;;;;;;-2.68;76.29;98017.00;5072824;28;20051;-63
2022/01/20 11:46:50;;;;;;;10.02;4.20;;;;;;;-2.74;76.88;98027.13;5056413;28;20044;-63
2022/01/20 11:49:19;;;;;;;12.00;3.75;;;;;;;-2.69;77.11;98029.78;5072859;28;20090;-63
2022/01/20 11:51:55;;;;;;;13.27;4.97;;;;;;;-2.69;76.93;98015.38;5074597;28;20461;-63
2022/01/20 11:54:35;;;;;;;6.32;3.30;;;;;;;-2.80;76.74;98020.09;5072908;28;20131;-63
2022/01/20 11:57:09;;;;;;;17.52;5.10;;;;;;;-2.81;77.12;98053.81;5074861;28;20044;-62
2022/01/20 11:59:46;;;;;;;6.93;3.55;;;;;;;-2.82;77.31;98046.75;5080035;28;20055;-63
2022/01/20 12:02:33;;;;;;;10.80;4.65;;;;;;;-2.87;76.99;98037.84;5073309;28;20495;-62
2022/01/20 12:05:15;;;;;;;11.20;4.65;;;;;;;-2.94;77.55;98021.81;5073967;28;20060;-64
2022/01/20 12:07:42;;;;;;;12.63;3.47;;;;;;;-2.91;77.16;98020.44;5072924;28;20140;-63
2022/01/20 12:10:12;;;;;;;11.65;4.93;;;;;;;-2.83;76.94;98020.66;5074634;28;20075;-64
2022/01/20 12:12:40;;;;;;;8.85;4.35;;;;;;;-2.75;76.72;98020.03;5073042;28;20132;-63
2022/01/20 12:15:27;;;;;;;12.43;5.13;;;;;;;-2.72;77.27;98024.91;5073965;28;20098;-62
2022/01/20 12:17:55;;;;;;;9.35;4.60;;;;;;;-2.69;76.58;98040.66;5072989;28;20047;-63
2022/01/20 12:20:24;;;;;;;12.18;4.95;;;;;;;-2.78;77.17;98015.16;5074140;28;20135;-63
2022/01/20 12:22:52;;;;;;;13.10;5.45;;;;;;;-2.74;76.82;98018.94;5072912;28;20166;-64
2022/01/20 12:25:26;;;;;;;9.95;5.03;;;;;;;-2.72;76.82;98019.47;5076256;28;20047;-62
2022/01/20 12:28:14;;;;;;;14.18;4.75;;;;;;;-2.82;76.89;98019.56;5076307;28;20136;-64
2022/01/20 12:30:50;;;;;;;10.20;4.45;;;;;;;-2.85;76.72;98024.75;5076147;28;20097;-62
2022/01/20 12:33:22;;;;;;;15.05;5.78;;;;;;;-2.85;77.14;98009.22;5077590;28;20048;-65
2022/01/20 12:35:52;;;;;;;10.70;5.00;;;;;;;-2.81;76.71;97999.41;5075990;28;20507;-63
2022/01/20 12:38:22;;;;;;;13.52;4.75;;;;;;;-2.76;76.36;98012.97;5077783;28;20529;-62
2022/01/20 12:41:03;;;;;;;12.25;4.80;;;;;;;-2.75;76.59;98006.41;5076568;28;20564;-63
2022/01/20 12:43:33;;;;;;;11.87;4.67;;;;;;;-2.72;76.85;97997.69;5059738;28;20060;-63
2022/01/20 12:46:00;;;;;;;9.23;4.07;;;;;;;-2.70;76.85;97995.50;5076311;28;20047;-62
2022/01/20 12:48:28;;;;;;;14.07;5.15;;;;;;;-2.66;76.55;98003.91;5077701;28;20083;-63